createdAt,value
2023-03-15T00:00:19.581Z,99.90
2023-03-15T00:02:46.228Z,99.90
2023-03-15T00:05:12.981Z,99.90
2023-03-15T00:07:39.626Z,99.90
2023-03-15T00:10:06.842Z,99.90
2023-03-15T00:12:34.340Z,99.90
2023-03-15T00:15:00.934Z,99.90
2023-03-15T00:17:27.991Z,99.90
2023-03-15T00:19:54.639Z,99.90
2023-03-15T00:22:23.056Z,99.90
2023-03-15T00:24:49.686Z,99.90
2023-03-15T00:27:16.251Z,99.90
2023-03-15T00:29:42.818Z,99.90
2023-03-15T00:32:09.654Z,99.90
2023-03-15T00:34:36.199Z,99.90
2023-03-15T00:37:02.780Z,99.90
2023-03-15T00:39:29.434Z,99.90
2023-03-15T00:41:56.805Z,99.90
2023-03-15T00:44:24.423Z,99.90
2023-03-15T00:46:51.270Z,99.90
2023-03-15T00:49:18.194Z,99.90
2023-03-15T00:51:44.751Z,99.90
2023-03-15T00:54:13.679Z,99.90
2023-03-15T00:56:41.240Z,99.90
2023-03-15T00:59:08.548Z,99.90
2023-03-15T01:01:35.254Z,99.90
2023-03-15T01:04:01.973Z,99.90
2023-03-15T01:06:29.543Z,99.90
2023-03-15T01:08:56.989Z,99.90
2023-03-15T01:11:26.703Z,99.90
2023-03-15T01:13:54.775Z,99.90
2023-03-15T01:16:22.149Z,99.90
2023-03-15T01:18:48.799Z,99.90
2023-03-15T01:21:16.459Z,99.90
2023-03-15T01:23:43.047Z,99.30
2023-03-15T01:26:13.465Z,99.40
2023-03-15T01:28:40.308Z,99.40
2023-03-15T01:31:07.024Z,99.70
2023-03-15T01:33:33.648Z,99.50
2023-03-15T01:36:04.751Z,98.70
2023-03-15T01:38:31.489Z,98.30
2023-03-15T01:40:58.189Z,98.00
2023-03-15T01:43:27.277Z,98.50
2023-03-15T01:46:18.658Z,98.40
2023-03-15T01:48:53.462Z,98.50
2023-03-15T01:51:25.457Z,98.50
2023-03-15T01:54:00.502Z,97.90
2023-03-15T01:56:27.907Z,98.10
2023-03-15T01:58:57.970Z,98.90
2023-03-15T02:01:24.958Z,97.80
2023-03-15T02:04:01.378Z,98.20
2023-03-15T02:06:28.764Z,98.50
2023-03-15T02:09:00.386Z,97.80
2023-03-15T02:11:27.963Z,97.80
2023-03-15T02:13:56.507Z,97.10
2023-03-15T02:16:24.597Z,97.10
2023-03-15T02:18:51.170Z,98.10
2023-03-15T02:21:26.531Z,96.80
2023-03-15T02:24:06.494Z,97.40
2023-03-15T02:26:43.836Z,96.20
2023-03-15T02:29:11.393Z,96.10
2023-03-15T02:31:38.903Z,95.90
2023-03-15T02:34:07.284Z,96.10
2023-03-15T02:36:35.559Z,96.30
2023-03-15T02:39:13.245Z,95.70
2023-03-15T02:41:43.538Z,95.70
2023-03-15T02:44:20.346Z,95.30
2023-03-15T02:46:49.923Z,95.60
2023-03-15T02:49:17.383Z,95.20
2023-03-15T02:51:43.987Z,94.30
2023-03-15T02:54:10.520Z,94.70
2023-03-15T02:56:37.101Z,94.60
2023-03-15T02:59:04.021Z,94.80
2023-03-15T03:01:31.619Z,94.50
2023-03-15T03:03:58.302Z,94.60
2023-03-15T03:06:24.912Z,95.00
2023-03-15T03:08:51.489Z,94.20
2023-03-15T03:11:18.246Z,94.10
2023-03-15T03:13:44.874Z,94.70
2023-03-15T03:16:11.810Z,95.10
2023-03-15T03:18:38.776Z,94.60
2023-03-15T03:21:07.234Z,94.70
2023-03-15T03:23:35.403Z,94.40
2023-03-15T03:26:02.981Z,94.40
2023-03-15T03:28:31.760Z,94.10
2023-03-15T03:30:59.106Z,94.50
2023-03-15T03:33:25.647Z,93.90
2023-03-15T03:35:53.974Z,94.30
2023-03-15T03:38:20.518Z,94.20
2023-03-15T03:40:47.113Z,94.30
2023-03-15T03:43:13.694Z,94.50
2023-03-15T03:45:40.218Z,94.30
2023-03-15T03:48:06.830Z,94.80
2023-03-15T03:50:33.378Z,94.90
2023-03-15T03:53:00.118Z,94.90
2023-03-15T03:55:26.709Z,95.20
2023-03-15T03:57:53.294Z,95.10
2023-03-15T04:00:20.158Z,95.30
2023-03-15T04:02:46.914Z,95.20
2023-03-15T04:05:13.807Z,95.40
2023-03-15T04:07:41.274Z,95.90
2023-03-15T04:10:08.877Z,95.70
2023-03-15T04:12:35.511Z,95.40
2023-03-15T04:15:02.218Z,95.60
2023-03-15T04:17:28.722Z,96.00
2023-03-15T04:19:55.315Z,95.80
2023-03-15T04:22:21.856Z,95.70
2023-03-15T04:24:51.178Z,95.60
2023-03-15T04:27:17.840Z,95.60
2023-03-15T04:29:44.776Z,95.90
2023-03-15T04:32:11.559Z,96.00
2023-03-15T04:34:38.740Z,95.90
2023-03-15T04:37:06.329Z,95.90
2023-03-15T04:39:32.891Z,96.40
2023-03-15T04:41:59.567Z,96.70
2023-03-15T04:44:27.339Z,96.50
2023-03-15T04:46:55.076Z,96.30
2023-03-15T04:49:21.769Z,96.50
2023-03-15T04:51:48.286Z,96.50
2023-03-15T04:54:14.853Z,96.50
2023-03-15T04:56:42.102Z,96.60
2023-03-15T04:59:10.562Z,96.40
2023-03-15T05:01:37.549Z,96.80
2023-03-15T05:04:04.300Z,97.20
2023-03-15T05:06:30.899Z,96.60
2023-03-15T05:08:57.495Z,97.00
2023-03-15T05:11:24.064Z,96.80
2023-03-15T05:13:50.614Z,96.70
2023-03-15T05:16:17.406Z,96.70
2023-03-15T05:18:45.197Z,96.60
2023-03-15T05:21:13.007Z,96.70
2023-03-15T05:23:39.844Z,96.50
2023-03-15T05:26:06.451Z,96.70
2023-03-15T05:28:33.058Z,96.60
2023-03-15T05:31:00.718Z,96.30
2023-03-15T05:33:27.573Z,96.40
2023-03-15T05:35:56.307Z,96.30
2023-03-15T05:38:26.418Z,96.20
2023-03-15T05:40:53.599Z,96.50
2023-03-15T05:43:20.864Z,96.60
2023-03-15T05:45:48.569Z,96.00
2023-03-15T05:48:16.574Z,95.80
2023-03-15T05:50:43.195Z,95.60
2023-03-15T05:53:10.467Z,96.10
2023-03-15T05:55:37.122Z,95.60
2023-03-15T05:58:04.053Z,95.60
2023-03-15T06:00:30.652Z,95.50
2023-03-15T06:02:57.286Z,95.60
2023-03-15T06:05:23.904Z,95.70
2023-03-15T06:07:50.460Z,96.00
2023-03-15T06:10:17.150Z,95.70
2023-03-15T06:12:44.628Z,95.80
2023-03-15T06:15:11.634Z,96.00
2023-03-15T06:17:38.224Z,95.60
2023-03-15T06:20:05.146Z,95.80
2023-03-15T06:22:31.822Z,95.50
2023-03-15T06:24:58.500Z,95.40
2023-03-15T06:27:25.048Z,95.10
2023-03-15T06:29:51.623Z,94.70
2023-03-15T06:32:18.190Z,95.20
2023-03-15T06:34:44.825Z,95.20
2023-03-15T06:37:16.305Z,94.70
2023-03-15T06:39:46.877Z,94.70
2023-03-15T06:42:13.672Z,93.90
2023-03-15T06:44:41.305Z,93.70
2023-03-15T06:47:08.779Z,93.30
2023-03-15T06:49:35.584Z,93.70
2023-03-15T06:52:02.832Z,93.10
2023-03-15T06:54:29.511Z,93.10
2023-03-15T06:56:56.220Z,93.20
2023-03-15T06:59:23.355Z,92.30
2023-03-15T07:01:50.037Z,92.40
2023-03-15T07:04:16.716Z,91.80
2023-03-15T07:06:43.328Z,91.50
2023-03-15T07:09:10.522Z,89.70
2023-03-15T07:11:37.361Z,89.50
2023-03-15T07:14:03.962Z,90.00
2023-03-15T07:16:30.692Z,90.10
2023-03-15T07:18:59.246Z,90.40
2023-03-15T07:21:26.751Z,89.40
2023-03-15T07:23:53.396Z,87.10
2023-03-15T07:26:20.256Z,87.20
2023-03-15T07:28:47.019Z,85.80
2023-03-15T07:31:14.078Z,84.40
2023-03-15T07:33:40.895Z,81.00
2023-03-15T07:36:08.260Z,80.90
2023-03-15T07:38:35.766Z,79.50
2023-03-15T07:41:04.241Z,79.00
2023-03-15T07:43:31.096Z,77.50
2023-03-15T07:45:57.696Z,75.40
2023-03-15T07:48:24.324Z,76.70
2023-03-15T07:50:50.999Z,76.20
2023-03-15T07:53:18.224Z,75.30
2023-03-15T07:55:47.731Z,72.70
2023-03-15T07:58:14.624Z,72.10
2023-03-15T08:00:41.494Z,69.60
2023-03-15T08:03:08.561Z,68.60
2023-03-15T08:05:35.820Z,68.00
2023-03-15T08:08:02.717Z,64.60
2023-03-15T08:10:29.377Z,63.90
2023-03-15T08:12:55.927Z,63.20
2023-03-15T08:15:22.746Z,61.00
2023-03-15T08:17:49.323Z,61.50
2023-03-15T08:20:19.859Z,60.70
2023-03-15T08:22:48.619Z,59.60
2023-03-15T08:25:18.699Z,57.40
2023-03-15T08:27:45.359Z,54.40
2023-03-15T08:30:13.989Z,54.30
2023-03-15T08:32:42.339Z,54.80
2023-03-15T08:35:09.909Z,52.90
2023-03-15T08:37:36.451Z,52.90
2023-03-15T08:40:09.175Z,50.70
2023-03-15T08:42:39.134Z,48.50
2023-03-15T08:45:07.426Z,46.10
2023-03-15T08:47:37.807Z,44.40
2023-03-15T08:50:11.468Z,44.30
2023-03-15T08:52:38.688Z,42.50
2023-03-15T08:55:05.938Z,41.90
2023-03-15T08:57:32.960Z,41.20
2023-03-15T09:00:01.920Z,41.10
2023-03-15T09:02:29.209Z,41.60
2023-03-15T09:04:55.814Z,39.60
2023-03-15T09:07:22.459Z,39.70
2023-03-15T09:09:49.234Z,40.60
2023-03-15T09:12:16.852Z,42.40
2023-03-15T09:14:43.971Z,44.30
2023-03-15T09:17:11.133Z,43.90
2023-03-15T09:19:38.240Z,42.50
2023-03-15T09:22:17.020Z,42.80
2023-03-15T09:24:51.785Z,43.20
2023-03-15T09:27:18.908Z,44.50
2023-03-15T09:29:45.442Z,45.80
2023-03-15T09:32:12.087Z,46.00
2023-03-15T09:34:41.956Z,45.70
2023-03-15T09:37:09.261Z,44.40
2023-03-15T09:39:35.809Z,44.20
2023-03-15T09:42:06.534Z,43.60
2023-03-15T09:44:36.534Z,45.20
2023-03-15T09:47:15.180Z,45.20
2023-03-15T09:49:47.775Z,45.50
2023-03-15T09:52:20.593Z,44.00
2023-03-15T09:54:57.643Z,44.10
2023-03-15T09:57:41.154Z,44.70
2023-03-15T10:00:13.613Z,44.90
2023-03-15T10:02:48.539Z,44.00
2023-03-15T10:05:28.112Z,43.50
2023-03-15T10:07:54.693Z,43.00
2023-03-15T10:10:28.326Z,42.60
2023-03-15T10:13:23.124Z,41.40
2023-03-15T10:16:05.048Z,40.40
2023-03-15T10:18:54.898Z,41.10
2023-03-15T10:21:38.048Z,41.00
2023-03-15T10:24:09.187Z,41.00
2023-03-15T10:26:38.538Z,41.00
2023-03-15T10:29:14.716Z,40.50
2023-03-15T10:31:45.108Z,41.70
2023-03-15T10:34:12.599Z,41.50
2023-03-15T10:36:49.761Z,42.80
2023-03-15T10:39:16.771Z,41.90
2023-03-15T10:41:46.022Z,43.50
2023-03-15T10:44:36.759Z,43.10
2023-03-15T10:47:24.327Z,44.50
2023-03-15T10:49:57.272Z,44.40
2023-03-15T10:52:36.796Z,44.10
2023-03-15T10:55:28.584Z,44.80
2023-03-15T10:57:57.375Z,45.80
2023-03-15T11:00:31.641Z,46.80
2023-03-15T11:03:17.080Z,46.60
2023-03-15T11:05:49.891Z,46.80
2023-03-15T11:08:21.443Z,46.30
2023-03-15T11:10:56.908Z,46.80
2023-03-15T11:13:35.573Z,47.90
2023-03-15T11:16:05.073Z,48.10
2023-03-15T11:18:54.842Z,48.00
2023-03-15T11:21:25.471Z,46.50
2023-03-15T11:23:53.796Z,46.60
2023-03-15T11:26:33.255Z,47.10
2023-03-15T11:29:07.984Z,47.40
2023-03-15T11:31:36.068Z,47.70
2023-03-15T11:34:27.215Z,48.60
2023-03-15T11:37:07.651Z,49.00
2023-03-15T11:40:10.512Z,49.90
2023-03-15T11:42:46.638Z,49.60
2023-03-15T11:45:30.001Z,50.10
2023-03-15T11:48:00.603Z,51.20
2023-03-15T11:50:27.239Z,50.00
2023-03-15T11:52:53.909Z,50.10
2023-03-15T11:55:26.455Z,50.30
2023-03-15T11:57:54.392Z,51.50
2023-03-15T12:00:34.286Z,51.90
2023-03-15T12:03:34.378Z,50.30
2023-03-15T12:06:18.450Z,51.40
2023-03-15T12:08:45.022Z,50.30
2023-03-15T12:11:22.604Z,50.60
2023-03-15T12:13:58.222Z,52.00
2023-03-15T12:16:30.751Z,49.80
2023-03-15T12:18:59.802Z,49.40
2023-03-15T12:21:37.568Z,48.60
2023-03-15T12:24:07.170Z,48.80
2023-03-15T12:26:49.483Z,49.10
2023-03-15T12:29:23.988Z,48.20
2023-03-15T12:31:58.543Z,46.50
2023-03-15T12:34:52.633Z,47.40
2023-03-15T12:37:27.271Z,47.00
2023-03-15T12:40:15.992Z,46.80
2023-03-15T12:42:42.547Z,47.10
2023-03-15T12:45:17.980Z,47.80
2023-03-15T12:48:12.568Z,47.30
2023-03-15T12:50:45.658Z,46.60
2023-03-15T12:53:38.115Z,46.10
2023-03-15T12:56:32.486Z,48.80
2023-03-15T12:59:05.378Z,47.80
2023-03-15T13:01:33.569Z,48.00
2023-03-15T13:04:01.740Z,47.90
2023-03-15T13:06:45.969Z,48.60
2023-03-15T13:09:38.474Z,47.80
2023-03-15T13:12:18.573Z,49.20
2023-03-15T13:15:22.488Z,49.90
2023-03-15T13:17:57.846Z,51.90
2023-03-15T13:20:42.924Z,51.50
2023-03-15T13:23:21.594Z,51.60
2023-03-15T13:26:19.269Z,52.00
2023-03-15T13:29:15.079Z,51.60
2023-03-15T13:31:42.620Z,51.40
2023-03-15T13:34:24.128Z,51.70
2023-03-15T13:36:56.418Z,53.10
2023-03-15T13:39:28.283Z,53.10
2023-03-15T13:41:59.864Z,53.10
2023-03-15T13:44:28.248Z,52.70
2023-03-15T13:46:55.211Z,52.20
2023-03-15T13:49:22.011Z,51.80
2023-03-15T13:51:51.684Z,51.20
2023-03-15T13:54:27.366Z,51.40
2023-03-15T13:57:03.282Z,52.20
2023-03-15T13:59:42.924Z,52.00
2023-03-15T14:02:25.111Z,51.30
2023-03-15T14:04:56.416Z,52.00
2023-03-15T14:07:33.795Z,51.60
2023-03-15T14:10:39.292Z,52.70
2023-03-15T14:13:25.973Z,55.50
2023-03-15T14:16:07.557Z,55.70
2023-03-15T14:18:37.100Z,55.40
2023-03-15T14:21:17.806Z,55.30
2023-03-15T14:23:47.312Z,54.20
2023-03-15T14:26:19.580Z,55.50
2023-03-15T14:29:01.201Z,53.90
2023-03-15T14:31:34.724Z,55.70
2023-03-15T14:34:09.162Z,54.60
2023-03-15T14:36:44.697Z,54.20
2023-03-15T14:39:18.048Z,54.60
2023-03-15T14:41:45.842Z,54.60
2023-03-15T14:44:12.475Z,54.30
2023-03-15T14:46:39.005Z,54.60
2023-03-15T14:49:05.834Z,54.90
2023-03-15T14:51:33.140Z,54.50
2023-03-15T14:54:00.912Z,53.70
2023-03-15T14:56:27.540Z,53.30
2023-03-15T14:58:55.366Z,53.20
2023-03-15T15:01:27.120Z,53.50
2023-03-15T15:04:02.305Z,53.20
2023-03-15T15:06:31.876Z,54.30
2023-03-15T15:08:59.833Z,53.80
2023-03-15T15:11:27.112Z,54.60
2023-03-15T15:13:53.845Z,53.10
2023-03-15T15:16:20.460Z,53.10
2023-03-15T15:18:47.084Z,52.80
2023-03-15T15:21:33.702Z,53.30
2023-03-15T15:24:02.946Z,54.50
2023-03-15T15:26:31.860Z,53.50
2023-03-15T15:28:59.393Z,52.70
2023-03-15T15:31:28.149Z,52.60
2023-03-15T15:33:56.413Z,53.70
2023-03-15T15:36:35.555Z,53.50
2023-03-15T15:39:06.362Z,54.40
2023-03-15T15:41:33.651Z,53.70
2023-03-15T15:44:00.544Z,54.40
2023-03-15T15:46:27.323Z,54.30
2023-03-15T15:48:54.399Z,54.30
2023-03-15T15:51:30.060Z,54.60
2023-03-15T15:53:59.060Z,53.90
2023-03-15T15:56:39.937Z,53.90
2023-03-15T15:59:13.285Z,53.50
2023-03-15T16:01:56.739Z,53.00
2023-03-15T16:04:25.939Z,53.50
2023-03-15T16:06:56.335Z,53.90
2023-03-15T16:09:24.675Z,53.70
2023-03-15T16:11:51.263Z,54.70
2023-03-15T16:14:17.939Z,54.60
2023-03-15T16:16:45.755Z,55.90
2023-03-15T16:19:12.330Z,55.70
2023-03-15T16:21:44.885Z,54.50
2023-03-15T16:24:25.683Z,54.70
2023-03-15T16:26:58.982Z,54.90
2023-03-15T16:29:38.534Z,56.40
2023-03-15T16:32:17.657Z,56.70
2023-03-15T16:34:50.048Z,58.10
2023-03-15T16:37:26.162Z,57.50
2023-03-15T16:39:57.405Z,56.60
2023-03-15T16:42:25.506Z,56.60
2023-03-15T16:44:52.802Z,58.10
2023-03-15T16:47:19.900Z,57.30
2023-03-15T16:49:46.530Z,57.50
2023-03-15T16:52:15.927Z,59.00
2023-03-15T16:54:43.686Z,58.30
2023-03-15T16:57:15.812Z,58.20
2023-03-15T16:59:42.345Z,58.20
2023-03-15T17:02:18.612Z,58.90
2023-03-15T17:04:45.820Z,58.30
2023-03-15T17:07:14.325Z,59.30
2023-03-15T17:09:43.980Z,58.20
2023-03-15T17:12:19.084Z,58.40
2023-03-15T17:14:45.977Z,58.80
2023-03-15T17:17:12.588Z,59.00
2023-03-15T17:19:39.396Z,59.70
2023-03-15T17:22:06.663Z,59.60
2023-03-15T17:24:34.409Z,59.60
2023-03-15T17:27:01.097Z,59.50
2023-03-15T17:29:27.705Z,60.50
2023-03-15T17:31:54.358Z,59.90
2023-03-15T17:34:22.411Z,60.10
2023-03-15T17:36:49.036Z,60.20
2023-03-15T17:39:16.946Z,59.70
2023-03-15T17:41:48.487Z,60.90
2023-03-15T17:44:15.090Z,60.20
2023-03-15T17:46:42.781Z,61.20
2023-03-15T17:49:11.867Z,60.40
2023-03-15T17:51:38.653Z,61.40
2023-03-15T17:54:17.624Z,61.50
2023-03-15T17:56:44.354Z,61.50
2023-03-15T17:59:11.971Z,61.50
2023-03-15T18:01:42.521Z,61.20
2023-03-15T18:04:11.892Z,62.00
2023-03-15T18:06:38.563Z,61.90
2023-03-15T18:09:05.581Z,60.90
2023-03-15T18:11:35.691Z,60.60
2023-03-15T18:14:03.475Z,60.30
2023-03-15T18:16:30.520Z,60.20
2023-03-15T18:18:57.276Z,60.70
2023-03-15T18:21:26.303Z,60.60
2023-03-15T18:23:53.476Z,60.10
2023-03-15T18:26:21.503Z,60.40
2023-03-15T18:28:48.869Z,60.80
2023-03-15T18:31:24.098Z,61.10
2023-03-15T18:33:52.060Z,61.30
2023-03-15T18:36:18.744Z,60.30
2023-03-15T18:38:45.848Z,60.70
2023-03-15T18:41:21.226Z,60.70
2023-03-15T18:43:50.008Z,61.40
2023-03-15T18:46:24.830Z,61.80
2023-03-15T18:48:54.334Z,60.20
2023-03-15T18:51:23.080Z,60.50
2023-03-15T18:53:49.764Z,61.10
2023-03-15T18:56:28.392Z,61.30
2023-03-15T18:58:55.028Z,60.80
2023-03-15T19:01:23.000Z,62.30
2023-03-15T19:03:50.809Z,61.00
2023-03-15T19:06:18.493Z,61.90
2023-03-15T19:08:45.085Z,61.50
2023-03-15T19:11:11.958Z,61.80
2023-03-15T19:13:38.738Z,62.70
2023-03-15T19:16:05.484Z,61.90
2023-03-15T19:18:34.985Z,62.40
2023-03-15T19:21:02.428Z,63.00
2023-03-15T19:23:29.016Z,64.70
2023-03-15T19:25:55.581Z,63.90
2023-03-15T19:28:22.391Z,62.70
2023-03-15T19:30:49.254Z,63.40
2023-03-15T19:33:16.199Z,63.40
2023-03-15T19:35:42.778Z,63.60
2023-03-15T19:38:09.324Z,63.50
2023-03-15T19:40:36.962Z,63.60
2023-03-15T19:43:03.746Z,63.40
2023-03-15T19:45:30.289Z,63.50
2023-03-15T19:47:56.894Z,63.00
2023-03-15T19:50:23.503Z,62.50
2023-03-15T19:52:50.037Z,63.30
2023-03-15T19:55:19.352Z,64.10
2023-03-15T19:57:46.322Z,64.00
2023-03-15T20:00:15.902Z,64.70
2023-03-15T20:02:43.701Z,64.60
2023-03-15T20:05:12.365Z,67.20
2023-03-15T20:07:39.422Z,66.00
2023-03-15T20:10:08.374Z,65.90
2023-03-15T20:12:36.047Z,67.00
2023-03-15T20:15:03.086Z,65.50
2023-03-15T20:17:29.670Z,66.40
2023-03-15T20:19:56.296Z,66.20
2023-03-15T20:22:22.982Z,66.30
2023-03-15T20:24:49.979Z,66.70
2023-03-15T20:27:16.808Z,67.30
2023-03-15T20:29:43.421Z,67.30
2023-03-15T20:32:10.078Z,67.30
2023-03-15T20:34:37.266Z,67.00
2023-03-15T20:37:03.796Z,66.30
2023-03-15T20:39:30.327Z,66.20
2023-03-15T20:41:56.863Z,67.10
2023-03-15T20:44:23.482Z,66.90
2023-03-15T20:46:54.789Z,66.90
2023-03-15T20:49:21.395Z,66.70
2023-03-15T20:51:48.001Z,68.40
2023-03-15T20:54:14.546Z,68.10
2023-03-15T20:56:41.104Z,67.80
2023-03-15T20:59:07.642Z,69.10
2023-03-15T21:01:34.478Z,68.50
2023-03-15T21:04:01.078Z,67.60
2023-03-15T21:06:27.622Z,67.90
2023-03-15T21:08:54.156Z,67.60
2023-03-15T21:11:20.751Z,66.50
2023-03-15T21:13:47.387Z,67.10
2023-03-15T21:16:14.261Z,67.60
2023-03-15T21:18:47.561Z,68.30
2023-03-15T21:21:14.272Z,68.30
2023-03-15T21:23:41.856Z,68.90
2023-03-15T21:26:10.557Z,69.90
2023-03-15T21:28:37.673Z,69.70
2023-03-15T21:31:05.441Z,69.80
2023-03-15T21:33:32.275Z,70.50
2023-03-15T21:36:00.321Z,70.10
2023-03-15T21:38:31.925Z,70.80
2023-03-15T21:40:59.876Z,71.50
2023-03-15T21:43:27.532Z,71.40
2023-03-15T21:45:54.395Z,72.40
2023-03-15T21:48:20.974Z,71.10
2023-03-15T21:50:53.282Z,70.40
2023-03-15T21:53:23.663Z,71.00
2023-03-15T21:55:50.216Z,71.10
2023-03-15T21:58:16.850Z,72.20
2023-03-15T22:00:43.555Z,72.10
2023-03-15T22:03:10.134Z,72.10
2023-03-15T22:05:36.690Z,72.50
2023-03-15T22:08:03.455Z,72.60
2023-03-15T22:10:30.293Z,73.10
2023-03-15T22:12:56.832Z,73.10
2023-03-15T22:15:23.426Z,73.20
2023-03-15T22:17:50.844Z,73.80
2023-03-15T22:20:17.603Z,74.80
2023-03-15T22:22:48.940Z,74.90
2023-03-15T22:25:16.050Z,75.00
2023-03-15T22:27:42.863Z,75.40
2023-03-15T22:30:13.588Z,75.40
2023-03-15T22:32:44.708Z,76.10
2023-03-15T22:35:15.926Z,76.90
2023-03-15T22:37:42.750Z,77.40
2023-03-15T22:40:13.969Z,77.60
2023-03-15T22:42:44.175Z,78.40
2023-03-15T22:45:10.806Z,78.00
2023-03-15T22:47:37.482Z,78.00
2023-03-15T22:50:04.255Z,78.00
2023-03-15T22:52:30.847Z,77.80
2023-03-15T22:54:57.415Z,77.30
2023-03-15T22:57:24.027Z,77.40
2023-03-15T22:59:50.577Z,76.60
2023-03-15T23:02:17.152Z,77.60
2023-03-15T23:04:45.155Z,75.60
2023-03-15T23:07:12.160Z,75.70
2023-03-15T23:09:38.743Z,76.20
2023-03-15T23:12:05.735Z,76.30
2023-03-15T23:14:32.348Z,77.40
2023-03-15T23:16:59.218Z,77.40
2023-03-15T23:19:25.761Z,77.80
2023-03-15T23:21:52.293Z,79.10
2023-03-15T23:24:19.646Z,78.70
2023-03-15T23:26:46.273Z,78.80
2023-03-15T23:29:13.267Z,78.20
2023-03-15T23:31:41.440Z,78.60
2023-03-15T23:34:08.566Z,78.60
2023-03-15T23:36:36.312Z,77.90
2023-03-15T23:39:03.176Z,79.40
2023-03-15T23:41:29.810Z,78.30
2023-03-15T23:43:56.535Z,77.60
2023-03-15T23:46:25.925Z,77.80
2023-03-15T23:48:53.326Z,78.20
2023-03-15T23:51:21.976Z,77.70
2023-03-15T23:53:48.500Z,78.30
2023-03-15T23:56:15.116Z,77.80
2023-03-15T23:58:41.702Z,78.60
